FDX5152 ZGGG-RPLC
Flight info
| Callsign | FDX5152 |
|---|---|
| Flight time | 1h 34m |
| Altitude | 24600 |
| Route | VIBOS1 VIBOS R473 SIERA/N0470F350 DCT MULET DCT SKATE V641 NOMAN A461 SANRO W4 MALIB MALIB3P |
| Aircraft | B763/H-SDE3FGHIM3RWXY/LB1 |
Departure
| Time | 2026-04-25 23:05 |
|---|---|
| Airport | Guangzhou Baiyun International Airport (ZGGG) |
Arrival
| Time | 2026-04-26 00:39 |
|---|---|
| Airport | Clark International Airport / Clark Air Base (RPLC) |
| Time | Latitude | Longitude | Altitude | Speed | Heading |
|---|---|---|---|---|---|
| 2026-04-25 22:32 | 23.41008 | 113.29491 | 64 ft | 0 kts | 102° |
| 2026-04-25 22:44 | 23.41010 | 113.29484 | 65 ft | 2 kts | 102° |
| 2026-04-25 22:44 | 23.41014 | 113.29463 | 65 ft | 3 kts | 102° |
| 2026-04-25 22:44 | 23.41018 | 113.29441 | 65 ft | 3 kts | 102° |
| 2026-04-25 22:44 | 23.41023 | 113.29419 | 65 ft | 3 kts | 102° |
| 2026-04-25 22:45 | 23.41026 | 113.29403 | 65 ft | 2 kts | 105° |
| 2026-04-25 22:45 | 23.41033 | 113.29388 | 65 ft | 3 kts | 140° |
| 2026-04-25 22:45 | 23.41047 | 113.29380 | 65 ft | 3 kts | 173° |
| 2026-04-25 22:45 | 23.41067 | 113.29381 | 65 ft | 3 kts | 189° |
| 2026-04-25 22:46 | 23.41079 | 113.29384 | 65 ft | 1 kts | 194° |
| 2026-04-25 22:46 | 23.41082 | 113.29384 | 65 ft | 0 kts | 194° |
| 2026-04-25 22:49 | 23.41081 | 113.29384 | 65 ft | 0 kts | 194° |
| 2026-04-25 22:51 | 23.41080 | 113.29384 | 65 ft | 0 kts | 194° |
| 2026-04-25 22:53 | 23.41066 | 113.29380 | 65 ft | 6 kts | 195° |
| 2026-04-25 22:53 | 23.41008 | 113.29362 | 65 ft | 10 kts | 195° |
| 2026-04-25 22:54 | 23.40940 | 113.29345 | 65 ft | 10 kts | 192° |
| 2026-04-25 22:54 | 23.40877 | 113.29327 | 65 ft | 9 kts | 196° |
| 2026-04-25 22:54 | 23.40817 | 113.29309 | 65 ft | 9 kts | 194° |
| 2026-04-25 22:54 | 23.40762 | 113.29293 | 65 ft | 8 kts | 195° |
| 2026-04-25 22:55 | 23.40714 | 113.29279 | 65 ft | 7 kts | 196° |
| 2026-04-25 22:55 | 23.40671 | 113.29266 | 65 ft | 8 kts | 195° |
| 2026-04-25 22:55 | 23.40601 | 113.29248 | 65 ft | 12 kts | 192° |
| 2026-04-25 22:55 | 23.40540 | 113.29214 | 65 ft | 7 kts | 270° |
| 2026-04-25 22:56 | 23.40549 | 113.29172 | 65 ft | 6 kts | 285° |
| 2026-04-25 22:56 | 23.40544 | 113.29100 | 65 ft | 11 kts | 217° |
| 2026-04-25 22:56 | 23.40444 | 113.29073 | 65 ft | 22 kts | 194° |
| 2026-04-25 22:56 | 23.40263 | 113.29019 | 65 ft | 32 kts | 194° |
| 2026-04-25 22:57 | 23.40024 | 113.28954 | 65 ft | 35 kts | 194° |
| 2026-04-25 22:57 | 23.39822 | 113.28900 | 65 ft | 29 kts | 192° |
| 2026-04-25 22:57 | 23.39633 | 113.28854 | 65 ft | 26 kts | 194° |
| 2026-04-25 22:57 | 23.39468 | 113.28808 | 65 ft | 23 kts | 194° |
| 2026-04-25 22:58 | 23.39319 | 113.28768 | 65 ft | 20 kts | 194° |
| 2026-04-25 22:58 | 23.39164 | 113.28721 | 65 ft | 27 kts | 195° |
| 2026-04-25 22:58 | 23.38979 | 113.28669 | 65 ft | 27 kts | 194° |
| 2026-04-25 22:58 | 23.38821 | 113.28626 | 65 ft | 25 kts | 194° |
| 2026-04-25 22:59 | 23.38660 | 113.28583 | 65 ft | 23 kts | 194° |
| 2026-04-25 22:59 | 23.38521 | 113.28544 | 65 ft | 20 kts | 195° |
| 2026-04-25 22:59 | 23.38399 | 113.28506 | 65 ft | 17 kts | 195° |
| 2026-04-25 22:59 | 23.38297 | 113.28480 | 65 ft | 15 kts | 191° |
| 2026-04-25 23:00 | 23.38165 | 113.28448 | 65 ft | 24 kts | 194° |
| 2026-04-25 23:00 | 23.37988 | 113.28397 | 65 ft | 27 kts | 194° |
| 2026-04-25 23:00 | 23.37804 | 113.28344 | 65 ft | 27 kts | 195° |
| 2026-04-25 23:00 | 23.37629 | 113.28292 | 65 ft | 24 kts | 195° |
| 2026-04-25 23:01 | 23.37480 | 113.28252 | 65 ft | 19 kts | 201° |
| 2026-04-25 23:01 | 23.37460 | 113.28204 | 65 ft | 4 kts | 273° |
| 2026-04-25 23:01 | 23.37464 | 113.28184 | 65 ft | 1 kts | 284° |
| 2026-04-25 23:01 | 23.37470 | 113.28159 | 65 ft | 7 kts | 284° |
| 2026-04-25 23:02 | 23.37490 | 113.28079 | 65 ft | 15 kts | 285° |
| 2026-04-25 23:02 | 23.37525 | 113.28048 | 65 ft | 3 kts | 12° |
| 2026-04-25 23:02 | 23.37528 | 113.28049 | 65 ft | 0 kts | 14° |
| 2026-04-25 23:03 | 23.37540 | 113.28052 | 65 ft | 7 kts | 15° |
| 2026-04-25 23:03 | 23.37655 | 113.28083 | 65 ft | 30 kts | 14° |
| 2026-04-25 23:04 | 23.38022 | 113.28185 | 65 ft | 81 kts | 15° |
| 2026-04-25 23:04 | 23.38465 | 113.28297 | 65 ft | 116 kts | 13° |
| 2026-04-25 23:04 | 23.39821 | 113.28673 | 104 ft | 180 kts | 16° |
| 2026-04-25 23:04 | 23.41049 | 113.29020 | 636 ft | 196 kts | 17° |
| 2026-04-25 23:05 | 23.42335 | 113.29699 | 1157 ft | 220 kts | 43° |
| 2026-04-25 23:05 | 23.43178 | 113.31130 | 1829 ft | 237 kts | 68° |
| 2026-04-25 23:05 | 23.43747 | 113.32890 | 2473 ft | 261 kts | 72° |
| 2026-04-25 23:05 | 23.44397 | 113.34874 | 3153 ft | 286 kts | 65° |
| 2026-04-25 23:06 | 23.45598 | 113.36714 | 3801 ft | 311 kts | 47° |
| 2026-04-25 23:06 | 23.47243 | 113.38353 | 4456 ft | 333 kts | 40° |
| 2026-04-25 23:06 | 23.49080 | 113.40046 | 5072 ft | 354 kts | 41° |
| 2026-04-25 23:06 | 23.50856 | 113.41861 | 6456 ft | 345 kts | 49° |
| 2026-04-25 23:07 | 23.52046 | 113.44066 | 8094 ft | 332 kts | 70° |
| 2026-04-25 23:07 | 23.52414 | 113.46490 | 9646 ft | 319 kts | 92° |
| 2026-04-25 23:07 | 23.51972 | 113.48826 | 10849 ft | 320 kts | 112° |
| 2026-04-25 23:07 | 23.50789 | 113.50894 | 11522 ft | 333 kts | 134° |
| 2026-04-25 23:08 | 23.48900 | 113.52439 | 12186 ft | 347 kts | 154° |
| 2026-04-25 23:08 | 23.46542 | 113.53195 | 12836 ft | 360 kts | 175° |
| 2026-04-25 23:08 | 23.43999 | 113.53104 | 13456 ft | 373 kts | 190° |
| 2026-04-25 23:08 | 23.41391 | 113.52586 | 14057 ft | 387 kts | 194° |
| 2026-04-25 23:09 | 23.38754 | 113.51938 | 14666 ft | 400 kts | 195° |
| 2026-04-25 23:09 | 23.36011 | 113.51228 | 15379 ft | 409 kts | 196° |
| 2026-04-25 23:09 | 23.33239 | 113.50502 | 16215 ft | 414 kts | 196° |
| 2026-04-25 23:09 | 23.30409 | 113.49758 | 17047 ft | 418 kts | 196° |
| 2026-04-25 23:10 | 23.27566 | 113.49010 | 17857 ft | 422 kts | 196° |
| 2026-04-25 23:10 | 23.24885 | 113.48304 | 18589 ft | 426 kts | 196° |
| 2026-04-25 23:10 | 23.23183 | 113.47856 | 19046 ft | 429 kts | 197° |
| 2026-04-25 23:10 | 23.20913 | 113.47258 | 19617 ft | 433 kts | 197° |
| 2026-04-25 23:11 | 23.18183 | 113.46500 | 20281 ft | 437 kts | 200° |
| 2026-04-25 23:11 | 23.15509 | 113.45125 | 20815 ft | 438 kts | 216° |
| 2026-04-25 23:11 | 23.13020 | 113.43283 | 21651 ft | 438 kts | 219° |
| 2026-04-25 23:11 | 23.10541 | 113.41264 | 22315 ft | 442 kts | 221° |
| 2026-04-25 23:12 | 23.08098 | 113.39198 | 22999 ft | 446 kts | 222° |
| 2026-04-25 23:12 | 23.05651 | 113.37099 | 23643 ft | 450 kts | 222° |
| 2026-04-25 23:12 | 23.03184 | 113.34973 | 24264 ft | 454 kts | 222° |
| 2026-04-25 23:12 | 23.00703 | 113.32829 | 24882 ft | 458 kts | 222° |
| 2026-04-25 23:13 | 22.98237 | 113.30697 | 25496 ft | 460 kts | 222° |
| 2026-04-25 23:13 | 22.95682 | 113.28505 | 26114 ft | 463 kts | 222° |
| 2026-04-25 23:13 | 22.93101 | 113.26388 | 26686 ft | 469 kts | 217° |
| 2026-04-25 23:13 | 22.90134 | 113.24874 | 27456 ft | 476 kts | 202° |
| 2026-04-25 23:14 | 22.86895 | 113.24222 | 28051 ft | 486 kts | 187° |
| 2026-04-25 23:14 | 22.83486 | 113.24472 | 28559 ft | 497 kts | 173° |
| 2026-04-25 23:14 | 22.80100 | 113.25384 | 28984 ft | 505 kts | 167° |
| 2026-04-25 23:14 | 22.76752 | 113.26595 | 29634 ft | 506 kts | 163° |
| 2026-04-25 23:15 | 22.73454 | 113.27929 | 30287 ft | 505 kts | 162° |
| 2026-04-25 23:15 | 22.70171 | 113.29328 | 30904 ft | 505 kts | 162° |
| 2026-04-25 23:15 | 22.66916 | 113.30753 | 31480 ft | 505 kts | 161° |
| 2026-04-25 23:15 | 22.63668 | 113.32203 | 32019 ft | 505 kts | 161° |
| 2026-04-25 23:16 | 22.60398 | 113.33583 | 32503 ft | 504 kts | 165° |
| 2026-04-25 23:16 | 22.57113 | 113.34789 | 32978 ft | 503 kts | 167° |
| 2026-04-25 23:16 | 22.53772 | 113.35914 | 33494 ft | 502 kts | 168° |
| 2026-04-25 23:16 | 22.50430 | 113.37007 | 34025 ft | 500 kts | 169° |
| 2026-04-25 23:17 | 22.47108 | 113.38101 | 34539 ft | 499 kts | 169° |
| 2026-04-25 23:17 | 22.43781 | 113.39216 | 34965 ft | 500 kts | 168° |
| 2026-04-25 23:17 | 22.40449 | 113.40348 | 35068 ft | 503 kts | 168° |
| 2026-04-25 23:17 | 22.37117 | 113.41495 | 35051 ft | 501 kts | 168° |
| 2026-04-25 23:18 | 22.30497 | 113.43791 | 35030 ft | 499 kts | 168° |
| 2026-04-25 23:18 | 22.23871 | 113.46078 | 35024 ft | 499 kts | 168° |
| 2026-04-25 23:19 | 22.17271 | 113.48419 | 35022 ft | 499 kts | 167° |
| 2026-04-25 23:19 | 22.10737 | 113.50826 | 35023 ft | 500 kts | 167° |
| 2026-04-25 23:20 | 22.04144 | 113.53262 | 35022 ft | 499 kts | 167° |
| 2026-04-25 23:20 | 21.97635 | 113.55880 | 35019 ft | 502 kts | 161° |
| 2026-04-25 23:21 | 21.91401 | 113.59381 | 35024 ft | 506 kts | 156° |
| 2026-04-25 23:21 | 21.85258 | 113.63120 | 35023 ft | 507 kts | 156° |
| 2026-04-25 23:22 | 21.79136 | 113.66904 | 35022 ft | 508 kts | 155° |
| 2026-04-25 23:23 | 21.69948 | 113.72599 | 35022 ft | 508 kts | 155° |
| 2026-04-25 23:23 | 21.63941 | 113.76614 | 34994 ft | 511 kts | 143° |
| 2026-04-25 23:23 | 21.61541 | 113.79432 | 35012 ft | 517 kts | 127° |
| 2026-04-25 23:24 | 21.59828 | 113.82870 | 35024 ft | 525 kts | 111° |
| 2026-04-25 23:24 | 21.58884 | 113.86674 | 35041 ft | 530 kts | 99° |
| 2026-04-25 23:24 | 21.58400 | 113.90610 | 35034 ft | 531 kts | 95° |
| 2026-04-25 23:25 | 21.57907 | 113.98511 | 35027 ft | 530 kts | 91° |
| 2026-04-25 23:25 | 21.57577 | 114.06465 | 35031 ft | 530 kts | 91° |
| 2026-04-25 23:26 | 21.57276 | 114.14361 | 35029 ft | 530 kts | 91° |
| 2026-04-25 23:26 | 21.56976 | 114.22262 | 35024 ft | 530 kts | 91° |
| 2026-04-25 23:27 | 21.56673 | 114.30177 | 35025 ft | 531 kts | 91° |
| 2026-04-25 23:27 | 21.56365 | 114.38129 | 35025 ft | 532 kts | 91° |
| 2026-04-25 23:28 | 21.56054 | 114.46068 | 35026 ft | 532 kts | 91° |
| 2026-04-25 23:28 | 21.55739 | 114.53969 | 35025 ft | 532 kts | 91° |
| 2026-04-25 23:29 | 21.55420 | 114.61918 | 35026 ft | 533 kts | 91° |
| 2026-04-25 23:29 | 21.55096 | 114.69871 | 35027 ft | 533 kts | 92° |
| 2026-04-25 23:30 | 21.54767 | 114.77829 | 35028 ft | 534 kts | 92° |
| 2026-04-25 23:30 | 21.54433 | 114.85801 | 35029 ft | 534 kts | 92° |
| 2026-04-25 23:31 | 21.54095 | 114.93792 | 35029 ft | 534 kts | 92° |
| 2026-04-25 23:31 | 21.53752 | 115.01765 | 35030 ft | 534 kts | 92° |
| 2026-04-25 23:32 | 21.53319 | 115.09699 | 35011 ft | 535 kts | 99° |
| 2026-04-25 23:32 | 21.52336 | 115.13530 | 35023 ft | 533 kts | 115° |
| 2026-04-25 23:32 | 21.50557 | 115.17017 | 35049 ft | 530 kts | 128° |
| 2026-04-25 23:33 | 21.45997 | 115.23199 | 35035 ft | 524 kts | 135° |
| 2026-04-25 23:33 | 21.41152 | 115.29020 | 35032 ft | 522 kts | 137° |
| 2026-04-25 23:34 | 21.36291 | 115.34735 | 35034 ft | 521 kts | 137° |
| 2026-04-25 23:34 | 21.31386 | 115.40472 | 35035 ft | 521 kts | 137° |
| 2026-04-25 23:35 | 21.26486 | 115.46194 | 35035 ft | 521 kts | 137° |
| 2026-04-25 23:35 | 21.21577 | 115.51920 | 35036 ft | 521 kts | 137° |
| 2026-04-25 23:36 | 21.16693 | 115.57613 | 35036 ft | 521 kts | 137° |
| 2026-04-25 23:36 | 21.11782 | 115.63332 | 35035 ft | 521 kts | 137° |
| 2026-04-25 23:37 | 21.06878 | 115.69037 | 35036 ft | 521 kts | 138° |
| 2026-04-25 23:37 | 21.01963 | 115.74751 | 35036 ft | 521 kts | 138° |
| 2026-04-25 23:38 | 20.97049 | 115.80460 | 35036 ft | 521 kts | 138° |
| 2026-04-25 23:38 | 20.92132 | 115.86169 | 35036 ft | 522 kts | 138° |
| 2026-04-25 23:39 | 20.87253 | 115.91833 | 35042 ft | 521 kts | 138° |
| 2026-04-25 23:39 | 20.82097 | 115.97253 | 35051 ft | 518 kts | 145° |
| 2026-04-25 23:40 | 20.76569 | 116.02164 | 35048 ft | 514 kts | 148° |
| 2026-04-25 23:40 | 20.71017 | 116.06934 | 35047 ft | 512 kts | 148° |
| 2026-04-25 23:41 | 20.65452 | 116.11681 | 35046 ft | 511 kts | 148° |
| 2026-04-25 23:41 | 20.59925 | 116.16386 | 35046 ft | 511 kts | 148° |
| 2026-04-25 23:42 | 20.54358 | 116.21119 | 35046 ft | 512 kts | 148° |
| 2026-04-25 23:42 | 20.48778 | 116.25858 | 35045 ft | 512 kts | 148° |
| 2026-04-25 23:43 | 20.43198 | 116.30595 | 35044 ft | 512 kts | 148° |
| 2026-04-25 23:43 | 20.37652 | 116.35299 | 35043 ft | 512 kts | 148° |
| 2026-04-25 23:44 | 20.32081 | 116.40020 | 35042 ft | 512 kts | 148° |
| 2026-04-25 23:44 | 20.26496 | 116.44750 | 35041 ft | 511 kts | 148° |
| 2026-04-25 23:45 | 20.20928 | 116.49464 | 35039 ft | 511 kts | 148° |
| 2026-04-25 23:45 | 20.15357 | 116.54176 | 35039 ft | 511 kts | 148° |
| 2026-04-25 23:46 | 20.09818 | 116.58859 | 35038 ft | 511 kts | 148° |
| 2026-04-25 23:46 | 20.04240 | 116.63574 | 35037 ft | 511 kts | 148° |
| 2026-04-25 23:47 | 19.98780 | 116.68428 | 35031 ft | 513 kts | 143° |
| 2026-04-25 23:47 | 19.93868 | 116.73924 | 35020 ft | 517 kts | 137° |
| 2026-04-25 23:48 | 19.89098 | 116.79698 | 35016 ft | 518 kts | 137° |
| 2026-04-25 23:48 | 19.84294 | 116.85404 | 35015 ft | 517 kts | 138° |
| 2026-04-25 23:49 | 19.79473 | 116.90998 | 35012 ft | 515 kts | 139° |
| 2026-04-25 23:49 | 19.74609 | 116.96601 | 35013 ft | 515 kts | 139° |
| 2026-04-25 23:50 | 19.69757 | 117.02197 | 35010 ft | 514 kts | 139° |
| 2026-04-25 23:50 | 19.64914 | 117.07787 | 35009 ft | 514 kts | 139° |
| 2026-04-25 23:51 | 19.60071 | 117.13376 | 35008 ft | 513 kts | 139° |
| 2026-04-25 23:51 | 19.56055 | 117.18005 | 35007 ft | 513 kts | 139° |
| 2026-04-25 23:52 | 19.51217 | 117.23574 | 35006 ft | 513 kts | 139° |
| 2026-04-25 23:52 | 19.46377 | 117.29140 | 35004 ft | 513 kts | 139° |
| 2026-04-25 23:53 | 19.41537 | 117.34702 | 35003 ft | 513 kts | 139° |
| 2026-04-25 23:53 | 19.36697 | 117.40260 | 35002 ft | 512 kts | 139° |
| 2026-04-25 23:54 | 19.31891 | 117.45773 | 35001 ft | 512 kts | 139° |
| 2026-04-25 23:54 | 19.27048 | 117.51323 | 35000 ft | 511 kts | 139° |
| 2026-04-25 23:55 | 19.22214 | 117.56857 | 34998 ft | 511 kts | 139° |
| 2026-04-25 23:55 | 19.17415 | 117.62346 | 34997 ft | 511 kts | 139° |
| 2026-04-25 23:56 | 19.12593 | 117.67856 | 34996 ft | 510 kts | 139° |
| 2026-04-25 23:56 | 19.07750 | 117.73386 | 34995 ft | 510 kts | 139° |
| 2026-04-25 23:57 | 19.02928 | 117.78886 | 34993 ft | 509 kts | 139° |
| 2026-04-25 23:57 | 18.98115 | 117.84371 | 34992 ft | 509 kts | 139° |
| 2026-04-25 23:58 | 18.93326 | 117.89823 | 34989 ft | 508 kts | 139° |
| 2026-04-25 23:58 | 18.88507 | 117.95305 | 34991 ft | 508 kts | 139° |
| 2026-04-25 23:59 | 18.83701 | 118.00767 | 34987 ft | 507 kts | 139° |
| 2026-04-25 23:59 | 18.78900 | 118.06219 | 34988 ft | 505 kts | 139° |
| 2026-04-26 00:00 | 18.74124 | 118.11636 | 34987 ft | 504 kts | 139° |
| 2026-04-26 00:00 | 18.69368 | 118.17026 | 34986 ft | 504 kts | 139° |
| 2026-04-26 00:01 | 18.64591 | 118.22435 | 34984 ft | 504 kts | 139° |
| 2026-04-26 00:01 | 18.59808 | 118.27847 | 34984 ft | 503 kts | 139° |
| 2026-04-26 00:02 | 18.55043 | 118.33234 | 34983 ft | 502 kts | 139° |
| 2026-04-26 00:02 | 18.50269 | 118.38624 | 34982 ft | 502 kts | 139° |
| 2026-04-26 00:03 | 18.45516 | 118.43987 | 34982 ft | 502 kts | 139° |
| 2026-04-26 00:03 | 18.40748 | 118.49363 | 34980 ft | 502 kts | 139° |
| 2026-04-26 00:04 | 18.35973 | 118.54743 | 34979 ft | 502 kts | 139° |
| 2026-04-26 00:04 | 18.31201 | 118.60113 | 34979 ft | 502 kts | 139° |
| 2026-04-26 00:05 | 18.26423 | 118.65485 | 34978 ft | 502 kts | 139° |
| 2026-04-26 00:05 | 18.21685 | 118.70808 | 34977 ft | 502 kts | 139° |
| 2026-04-26 00:06 | 18.16903 | 118.76177 | 34975 ft | 502 kts | 139° |
| 2026-04-26 00:06 | 18.12119 | 118.81542 | 34975 ft | 502 kts | 139° |
| 2026-04-26 00:07 | 18.07345 | 118.86892 | 34975 ft | 502 kts | 139° |
| 2026-04-26 00:07 | 18.02568 | 118.92241 | 34974 ft | 502 kts | 139° |
| 2026-04-26 00:08 | 17.97784 | 118.97591 | 34976 ft | 501 kts | 138° |
| 2026-04-26 00:08 | 17.93021 | 119.02916 | 34972 ft | 498 kts | 138° |
| 2026-04-26 00:09 | 17.88308 | 119.08179 | 34972 ft | 498 kts | 138° |
| 2026-04-26 00:09 | 17.83561 | 119.13475 | 34972 ft | 498 kts | 138° |
| 2026-04-26 00:10 | 17.78818 | 119.18762 | 34972 ft | 498 kts | 138° |
| 2026-04-26 00:10 | 17.74060 | 119.24062 | 34971 ft | 498 kts | 138° |
| 2026-04-26 00:11 | 17.69307 | 119.29351 | 34972 ft | 498 kts | 138° |
| 2026-04-26 00:11 | 17.64587 | 119.34599 | 34972 ft | 498 kts | 138° |
| 2026-04-26 00:12 | 17.59844 | 119.39869 | 34971 ft | 498 kts | 138° |
| 2026-04-26 00:12 | 17.55077 | 119.45162 | 34971 ft | 498 kts | 138° |
| 2026-04-26 00:13 | 17.50323 | 119.50435 | 34971 ft | 497 kts | 138° |
| 2026-04-26 00:13 | 17.45603 | 119.55667 | 34971 ft | 497 kts | 138° |
| 2026-04-26 00:14 | 17.40840 | 119.60942 | 34971 ft | 498 kts | 138° |
| 2026-04-26 00:14 | 17.36071 | 119.66218 | 34972 ft | 498 kts | 138° |
| 2026-04-26 00:15 | 17.31313 | 119.71480 | 34971 ft | 497 kts | 138° |
| 2026-04-26 00:15 | 17.26572 | 119.76717 | 34972 ft | 498 kts | 138° |
| 2026-04-26 00:16 | 17.21787 | 119.82000 | 34971 ft | 497 kts | 138° |
| 2026-04-26 00:16 | 17.17054 | 119.87221 | 34972 ft | 497 kts | 138° |
| 2026-04-26 00:17 | 17.12258 | 119.92503 | 34972 ft | 500 kts | 138° |
| 2026-04-26 00:17 | 17.07518 | 119.97727 | 34970 ft | 496 kts | 138° |
| 2026-04-26 00:18 | 17.02807 | 120.02917 | 34858 ft | 485 kts | 138° |
| 2026-04-26 00:18 | 17.00465 | 120.05493 | 34132 ft | 491 kts | 138° |
| 2026-04-26 00:18 | 16.98093 | 120.08094 | 33291 ft | 496 kts | 137° |
| 2026-04-26 00:18 | 16.95700 | 120.10718 | 32453 ft | 499 kts | 137° |
| 2026-04-26 00:19 | 16.93297 | 120.13354 | 31592 ft | 502 kts | 137° |
| 2026-04-26 00:19 | 16.90887 | 120.15999 | 30766 ft | 505 kts | 137° |
| 2026-04-26 00:19 | 16.88476 | 120.18646 | 29961 ft | 510 kts | 136° |
| 2026-04-26 00:19 | 16.86023 | 120.21338 | 29194 ft | 514 kts | 136° |
| 2026-04-26 00:20 | 16.83528 | 120.24076 | 28578 ft | 513 kts | 136° |
| 2026-04-26 00:20 | 16.81092 | 120.26749 | 27895 ft | 514 kts | 136° |
| 2026-04-26 00:20 | 16.78635 | 120.29444 | 27236 ft | 513 kts | 136° |
| 2026-04-26 00:20 | 16.76169 | 120.32145 | 26570 ft | 512 kts | 136° |
| 2026-04-26 00:21 | 16.73490 | 120.34540 | 25788 ft | 502 kts | 151° |
| 2026-04-26 00:21 | 16.70418 | 120.36033 | 25681 ft | 477 kts | 166° |
| 2026-04-26 00:21 | 16.67218 | 120.36833 | 25588 ft | 468 kts | 173° |
| 2026-04-26 00:21 | 16.64025 | 120.37381 | 25061 ft | 462 kts | 175° |
| 2026-04-26 00:22 | 16.60858 | 120.37833 | 24533 ft | 456 kts | 176° |
| 2026-04-26 00:22 | 16.57724 | 120.38249 | 24001 ft | 452 kts | 176° |
| 2026-04-26 00:22 | 16.54612 | 120.38651 | 23460 ft | 448 kts | 176° |
| 2026-04-26 00:22 | 16.51528 | 120.39047 | 22882 ft | 445 kts | 176° |
| 2026-04-26 00:23 | 16.48469 | 120.39437 | 22316 ft | 441 kts | 176° |
| 2026-04-26 00:23 | 16.45440 | 120.39823 | 21752 ft | 437 kts | 176° |
| 2026-04-26 00:23 | 16.42432 | 120.40207 | 21199 ft | 434 kts | 176° |
| 2026-04-26 00:23 | 16.39442 | 120.40587 | 20650 ft | 430 kts | 176° |
| 2026-04-26 00:24 | 16.36471 | 120.40966 | 20100 ft | 427 kts | 176° |
| 2026-04-26 00:24 | 16.33573 | 120.41335 | 19573 ft | 424 kts | 176° |
| 2026-04-26 00:24 | 16.30655 | 120.41705 | 19041 ft | 421 kts | 176° |
| 2026-04-26 00:24 | 16.27765 | 120.42072 | 18514 ft | 417 kts | 176° |
| 2026-04-26 00:25 | 16.24880 | 120.42438 | 17987 ft | 414 kts | 176° |
| 2026-04-26 00:25 | 16.22029 | 120.42800 | 17467 ft | 411 kts | 176° |
| 2026-04-26 00:25 | 16.19197 | 120.43159 | 16960 ft | 408 kts | 175° |
| 2026-04-26 00:25 | 16.16395 | 120.43515 | 16463 ft | 404 kts | 175° |
| 2026-04-26 00:26 | 16.13604 | 120.43869 | 15961 ft | 402 kts | 175° |
| 2026-04-26 00:26 | 16.10835 | 120.44219 | 15463 ft | 399 kts | 175° |
| 2026-04-26 00:26 | 16.08096 | 120.44567 | 14977 ft | 396 kts | 175° |
| 2026-04-26 00:26 | 16.05401 | 120.44907 | 14495 ft | 393 kts | 175° |
| 2026-04-26 00:27 | 16.02705 | 120.45248 | 14010 ft | 389 kts | 175° |
| 2026-04-26 00:27 | 16.00018 | 120.45588 | 13526 ft | 386 kts | 174° |
| 2026-04-26 00:27 | 15.97365 | 120.45923 | 13056 ft | 384 kts | 174° |
| 2026-04-26 00:27 | 15.94721 | 120.46258 | 12583 ft | 381 kts | 174° |
| 2026-04-26 00:28 | 15.92091 | 120.46589 | 12111 ft | 378 kts | 174° |
| 2026-04-26 00:28 | 15.89487 | 120.46918 | 11643 ft | 376 kts | 174° |
| 2026-04-26 00:28 | 15.86925 | 120.47241 | 11180 ft | 373 kts | 174° |
| 2026-04-26 00:28 | 15.84361 | 120.47565 | 10716 ft | 369 kts | 173° |
| 2026-04-26 00:29 | 15.81801 | 120.47888 | 10363 ft | 361 kts | 173° |
| 2026-04-26 00:29 | 15.79389 | 120.48194 | 10290 ft | 345 kts | 173° |
| 2026-04-26 00:29 | 15.77070 | 120.48487 | 10256 ft | 329 kts | 173° |
| 2026-04-26 00:29 | 15.74845 | 120.48768 | 10208 ft | 314 kts | 173° |
| 2026-04-26 00:30 | 15.72712 | 120.49039 | 10143 ft | 302 kts | 173° |
| 2026-04-26 00:30 | 15.70658 | 120.49300 | 10048 ft | 291 kts | 173° |
| 2026-04-26 00:30 | 15.68665 | 120.49555 | 9954 ft | 288 kts | 173° |
| 2026-04-26 00:30 | 15.66706 | 120.49888 | 9696 ft | 289 kts | 169° |
| 2026-04-26 00:31 | 15.64702 | 120.50314 | 9262 ft | 291 kts | 168° |
| 2026-04-26 00:31 | 15.62715 | 120.50749 | 8829 ft | 293 kts | 168° |
| 2026-04-26 00:31 | 15.60734 | 120.51165 | 8429 ft | 294 kts | 168° |
| 2026-04-26 00:31 | 15.58727 | 120.51574 | 8050 ft | 293 kts | 168° |
| 2026-04-26 00:32 | 15.56732 | 120.51978 | 7687 ft | 292 kts | 168° |
| 2026-04-26 00:32 | 15.54741 | 120.52383 | 7324 ft | 291 kts | 168° |
| 2026-04-26 00:32 | 15.50790 | 120.53192 | 6603 ft | 288 kts | 168° |
| 2026-04-26 00:33 | 15.48824 | 120.53593 | 6240 ft | 287 kts | 168° |
| 2026-04-26 00:33 | 15.46864 | 120.53992 | 5883 ft | 286 kts | 168° |
| 2026-04-26 00:33 | 15.44913 | 120.54391 | 5525 ft | 285 kts | 168° |
| 2026-04-26 00:33 | 15.43004 | 120.54917 | 5154 ft | 283 kts | 156° |
| 2026-04-26 00:34 | 15.41390 | 120.56055 | 4705 ft | 283 kts | 133° |
| 2026-04-26 00:34 | 15.40276 | 120.57743 | 4194 ft | 286 kts | 117° |
| 2026-04-26 00:34 | 15.39447 | 120.59550 | 3543 ft | 273 kts | 114° |
| 2026-04-26 00:34 | 15.38378 | 120.61090 | 2939 ft | 257 kts | 139° |
| 2026-04-26 00:35 | 15.36850 | 120.61866 | 2624 ft | 239 kts | 168° |
| 2026-04-26 00:35 | 15.35182 | 120.61923 | 2657 ft | 240 kts | 183° |
| 2026-04-26 00:35 | 15.33654 | 120.61694 | 2795 ft | 222 kts | 189° |
| 2026-04-26 00:35 | 15.32142 | 120.61334 | 2774 ft | 225 kts | 193° |
| 2026-04-26 00:36 | 15.30653 | 120.60875 | 2593 ft | 221 kts | 197° |
| 2026-04-26 00:36 | 15.29253 | 120.60387 | 2330 ft | 201 kts | 198° |
| 2026-04-26 00:36 | 15.28021 | 120.59935 | 2137 ft | 175 kts | 199° |
| 2026-04-26 00:36 | 15.26909 | 120.59516 | 1935 ft | 167 kts | 199° |
| 2026-04-26 00:37 | 15.25818 | 120.59096 | 1700 ft | 166 kts | 200° |
| 2026-04-26 00:37 | 15.24737 | 120.58673 | 1475 ft | 166 kts | 200° |
| 2026-04-26 00:37 | 15.24024 | 120.58393 | 1329 ft | 166 kts | 201° |
| 2026-04-26 00:37 | 15.23263 | 120.58093 | 1174 ft | 165 kts | 201° |
| 2026-04-26 00:38 | 15.22268 | 120.57699 | 969 ft | 165 kts | 201° |
| 2026-04-26 00:38 | 15.21210 | 120.57280 | 756 ft | 165 kts | 201° |
| 2026-04-26 00:38 | 15.20137 | 120.56853 | 532 ft | 159 kts | 201° |
| 2026-04-26 00:38 | 15.19203 | 120.56480 | 499 ft | 129 kts | 199° |
| 2026-04-26 00:39 | 15.18515 | 120.56211 | 499 ft | 81 kts | 199° |
| 2026-04-26 00:39 | 15.18230 | 120.56101 | 499 ft | 31 kts | 198° |
| 2026-04-26 00:39 | 15.18144 | 120.55998 | 499 ft | 18 kts | 283° |
| 2026-04-26 00:39 | 15.18183 | 120.55884 | 499 ft | 16 kts | 291° |
| 2026-04-26 00:40 | 15.18220 | 120.55788 | 499 ft | 13 kts | 292° |
| 2026-04-26 00:40 | 15.18251 | 120.55709 | 499 ft | 11 kts | 292° |
| 2026-04-26 00:40 | 15.18275 | 120.55643 | 499 ft | 12 kts | 288° |
| 2026-04-26 00:40 | 15.18309 | 120.55534 | 499 ft | 16 kts | 289° |
| 2026-04-26 00:41 | 15.18374 | 120.55476 | 499 ft | 11 kts | 5° |
| 2026-04-26 00:41 | 15.18435 | 120.55499 | 499 ft | 8 kts | 15° |
| 2026-04-26 00:41 | 15.18478 | 120.55515 | 499 ft | 7 kts | 22° |
| 2026-04-26 00:41 | 15.18552 | 120.55547 | 499 ft | 15 kts | 12° |
| 2026-04-26 00:42 | 15.18603 | 120.55485 | 499 ft | 12 kts | 287° |
| 2026-04-26 00:42 | 15.18629 | 120.55416 | 499 ft | 9 kts | 292° |
| 2026-04-26 00:42 | 15.18650 | 120.55362 | 499 ft | 7 kts | 292° |
| 2026-04-26 00:42 | 15.18665 | 120.55324 | 499 ft | 5 kts | 291° |
| 2026-04-26 00:43 | 15.18683 | 120.55271 | 499 ft | 15 kts | 288° |
| 2026-04-26 00:43 | 15.18722 | 120.55157 | 499 ft | 17 kts | 290° |
| 2026-04-26 00:43 | 15.18759 | 120.55052 | 499 ft | 4 kts | 289° |